createdAt,value
2023-10-21T00:01:21.497Z,21.70
2023-10-21T00:03:49.316Z,21.90
2023-10-21T00:06:17.180Z,19.10
2023-10-21T00:08:44.698Z,15.60
2023-10-21T00:11:14.266Z,16.10
2023-10-21T00:13:41.578Z,14.20
2023-10-21T00:16:08.872Z,21.40
2023-10-21T00:18:37.886Z,21.20
2023-10-21T00:21:06.744Z,18.00
2023-10-21T00:23:34.136Z,22.70
2023-10-21T00:26:06.373Z,22.60
2023-10-21T00:28:34.677Z,16.70
2023-10-21T00:32:11.744Z,19.20
2023-10-21T00:36:00.305Z,17.60
2023-10-21T00:39:57.292Z,22.70
2023-10-21T00:47:44.405Z,19.00
2023-10-21T00:51:32.926Z,20.10
2023-10-21T00:54:20.654Z,21.60
2023-10-21T00:56:47.896Z,17.90
2023-10-21T00:59:15.596Z,13.30
2023-10-21T01:04:43.913Z,17.10
2023-10-21T01:07:20.133Z,19.70
2023-10-21T01:09:47.489Z,17.70
2023-10-21T01:12:14.790Z,17.90
2023-10-21T01:14:42.261Z,16.20
2023-10-21T01:17:10.184Z,18.70
2023-10-21T01:19:37.509Z,13.80
2023-10-21T01:22:04.999Z,23.20
2023-10-21T01:24:33.026Z,16.80
2023-10-21T01:27:00.154Z,21.50
2023-10-21T01:29:27.354Z,13.60
2023-10-21T01:31:54.727Z,16.60
2023-10-21T01:34:21.947Z,13.90
2023-10-21T01:36:49.298Z,22.60
2023-10-21T01:39:16.800Z,18.90
2023-10-21T01:41:44.945Z,14.50
2023-10-21T01:44:12.200Z,15.30
2023-10-21T01:46:39.589Z,16.20
2023-10-21T01:49:06.768Z,17.50
2023-10-21T01:51:33.963Z,17.50
2023-10-21T01:54:01.767Z,16.80
2023-10-21T01:56:28.950Z,19.90
2023-10-21T01:58:57.023Z,17.50
2023-10-21T02:01:24.230Z,19.70
2023-10-21T02:03:51.521Z,12.90
2023-10-21T02:06:18.885Z,17.80
2023-10-21T02:08:46.212Z,21.40
2023-10-21T02:11:13.381Z,21.10
2023-10-21T02:13:41.125Z,16.90
2023-10-21T02:16:11.624Z,13.50
2023-10-21T02:18:38.911Z,21.80
2023-10-21T02:21:07.717Z,15.20
2023-10-21T02:23:36.010Z,15.40
2023-10-21T02:26:08.522Z,19.20
2023-10-21T02:28:36.218Z,22.00
2023-10-21T02:31:05.054Z,20.10
2023-10-21T02:33:32.932Z,13.60
2023-10-21T02:36:00.405Z,17.70
2023-10-21T02:38:27.648Z,19.90
2023-10-21T02:40:54.906Z,14.40
2023-10-21T02:43:22.157Z,16.90
2023-10-21T02:45:50.146Z,19.50
2023-10-21T02:48:17.418Z,16.60
2023-10-21T02:50:44.742Z,17.20
2023-10-21T02:53:11.899Z,17.50
2023-10-21T02:55:39.243Z,19.90
2023-10-21T02:58:06.343Z,18.40
2023-10-21T03:00:33.663Z,14.00
2023-10-21T03:03:01.018Z,15.20
2023-10-21T03:05:28.277Z,13.50
2023-10-21T03:07:55.701Z,23.00
2023-10-21T03:10:24.554Z,19.00
2023-10-21T03:12:51.770Z,17.60
2023-10-21T03:15:19.079Z,19.20
2023-10-21T03:17:46.843Z,20.20
2023-10-21T03:20:14.263Z,18.00
2023-10-21T03:22:41.506Z,15.20
2023-10-21T03:25:09.389Z,15.10
2023-10-21T03:27:37.880Z,20.60
2023-10-21T03:30:06.317Z,18.20
2023-10-21T03:32:33.915Z,17.70
2023-10-21T03:35:01.145Z,22.20
2023-10-21T03:37:28.259Z,15.50
2023-10-21T03:39:55.461Z,21.50
2023-10-21T03:42:22.685Z,16.50
2023-10-21T03:44:49.951Z,13.10
2023-10-21T03:47:18.071Z,18.10
2023-10-21T03:49:45.298Z,16.20
2023-10-21T03:52:12.960Z,20.50
2023-10-21T03:54:40.170Z,10.70
2023-10-21T03:57:07.971Z,23.40
2023-10-21T03:59:35.865Z,17.10
2023-10-21T04:02:02.964Z,24.20
2023-10-21T04:04:30.160Z,17.00
2023-10-21T04:06:57.491Z,30.50
2023-10-21T04:09:25.422Z,23.80
2023-10-21T04:11:52.632Z,19.70
2023-10-21T04:14:19.900Z,20.20
2023-10-21T04:16:47.063Z,19.60
2023-10-21T04:19:17.198Z,22.60
2023-10-21T04:21:45.369Z,16.50
2023-10-21T04:24:12.532Z,18.00
2023-10-21T04:26:39.854Z,18.30
2023-10-21T04:29:07.115Z,21.40
2023-10-21T04:31:37.394Z,17.60
2023-10-21T04:34:05.095Z,21.80
2023-10-21T04:36:32.200Z,17.10
2023-10-21T04:38:59.496Z,19.00
2023-10-21T04:41:26.673Z,18.50
2023-10-21T04:43:53.936Z,16.80
2023-10-21T04:46:21.253Z,24.20
2023-10-21T04:48:48.464Z,16.50
2023-10-21T04:51:15.811Z,23.80
2023-10-21T04:53:44.336Z,16.00
2023-10-21T04:56:11.545Z,18.70
2023-10-21T04:58:38.811Z,18.30
2023-10-21T05:01:07.086Z,17.80
2023-10-21T05:03:34.453Z,16.60
2023-10-21T05:06:01.926Z,18.60
2023-10-21T05:08:29.260Z,31.90
2023-10-21T05:10:56.665Z,20.00
2023-10-21T05:13:25.164Z,20.20
2023-10-21T05:15:52.392Z,15.50
2023-10-21T05:18:20.787Z,13.60
2023-10-21T05:20:48.073Z,16.20
2023-10-21T05:23:15.800Z,18.20
2023-10-21T05:25:42.965Z,15.50
2023-10-21T05:28:10.411Z,13.60
2023-10-21T05:30:39.194Z,15.50
2023-10-21T05:33:09.404Z,20.50
2023-10-21T05:35:37.407Z,17.10
2023-10-21T05:38:04.810Z,19.20
2023-10-21T05:40:32.103Z,17.30
2023-10-21T05:42:59.355Z,25.20
2023-10-21T05:45:26.628Z,19.00
2023-10-21T05:47:55.111Z,17.20
2023-10-21T05:50:22.815Z,20.40
2023-10-21T05:52:50.032Z,22.90
2023-10-21T05:55:17.283Z,19.80
2023-10-21T05:57:44.570Z,18.80
2023-10-21T06:00:13.959Z,16.60
2023-10-21T06:02:41.818Z,17.20
2023-10-21T06:05:09.333Z,20.70
2023-10-21T06:07:36.615Z,11.00
2023-10-21T06:10:04.327Z,13.00
2023-10-21T06:12:31.639Z,10.60
2023-10-21T06:14:59.228Z,13.60
2023-10-21T06:17:26.624Z,19.50
2023-10-21T06:19:54.140Z,23.50
2023-10-21T06:22:21.403Z,12.60
2023-10-21T06:24:48.687Z,13.20
2023-10-21T06:27:16.063Z,12.60
2023-10-21T06:29:43.468Z,14.70
2023-10-21T06:32:11.701Z,13.60
2023-10-21T06:34:39.116Z,14.70
2023-10-21T06:37:06.342Z,17.40
2023-10-21T06:39:33.690Z,19.00
2023-10-21T06:42:01.047Z,15.20
2023-10-21T06:44:28.317Z,11.90
2023-10-21T06:46:55.754Z,11.30
2023-10-21T06:49:22.982Z,14.20
2023-10-21T06:51:51.144Z,16.30
2023-10-21T06:54:18.938Z,16.60
2023-10-21T06:56:49.672Z,13.10
2023-10-21T06:59:17.576Z,15.80
2023-10-21T07:01:44.892Z,20.60
2023-10-21T07:04:12.182Z,22.10
2023-10-21T07:06:40.147Z,19.20
2023-10-21T07:09:08.867Z,15.00
2023-10-21T07:11:36.332Z,15.70
2023-10-21T07:14:05.362Z,17.30
2023-10-21T07:16:33.159Z,11.90
2023-10-21T07:19:00.359Z,30.20
2023-10-21T07:21:27.691Z,12.90
2023-10-21T07:23:55.173Z,10.80
2023-10-21T07:26:22.634Z,13.20
2023-10-21T07:28:49.879Z,16.70
2023-10-21T07:31:17.171Z,14.90
2023-10-21T07:33:44.460Z,13.00
2023-10-21T07:36:11.746Z,14.80
2023-10-21T07:38:39.041Z,21.40
2023-10-21T07:41:14.108Z,14.00
2023-10-21T07:43:41.453Z,18.20
2023-10-21T07:46:08.735Z,14.10
2023-10-21T07:48:36.099Z,22.30
2023-10-21T07:51:03.943Z,17.90
2023-10-21T07:53:31.104Z,16.80
2023-10-21T07:55:58.358Z,11.10
2023-10-21T07:58:26.224Z,15.40
2023-10-21T08:00:53.468Z,12.90
2023-10-21T08:03:21.504Z,16.20
2023-10-21T08:05:48.808Z,17.60
2023-10-21T08:08:16.240Z,25.50
2023-10-21T08:10:43.653Z,42.10
2023-10-21T08:13:10.869Z,21.10
2023-10-21T08:15:38.148Z,21.10
2023-10-21T08:18:05.643Z,24.00
2023-10-21T08:20:33.023Z,20.20
2023-10-21T08:23:00.271Z,24.30
2023-10-21T08:25:27.519Z,16.60
2023-10-21T08:27:54.656Z,38.70
2023-10-21T08:30:22.043Z,19.90
2023-10-21T08:32:52.436Z,30.40
2023-10-21T08:35:20.069Z,26.60
2023-10-21T08:37:47.449Z,18.50
2023-10-21T08:40:15.150Z,46.50
2023-10-21T08:43:01.069Z,24.00
2023-10-21T08:45:31.322Z,15.10
2023-10-21T08:47:59.798Z,14.90
2023-10-21T08:50:28.869Z,18.40
2023-10-21T08:52:59.633Z,20.50
2023-10-21T08:55:27.441Z,23.50
2023-10-21T08:57:55.630Z,22.00
2023-10-21T09:00:23.123Z,23.30
2023-10-21T09:02:50.734Z,22.40
2023-10-21T09:05:18.633Z,19.40
2023-10-21T09:07:51.014Z,19.60
2023-10-21T09:10:19.526Z,19.00
2023-10-21T09:12:47.204Z,19.70
2023-10-21T09:15:16.942Z,25.10
2023-10-21T09:17:53.796Z,17.50
2023-10-21T09:20:23.064Z,18.30
2023-10-21T09:22:56.883Z,20.30
2023-10-21T09:25:24.736Z,18.00
2023-10-21T09:27:59.392Z,17.70
2023-10-21T09:30:28.558Z,25.20
2023-10-21T09:33:06.318Z,25.50
2023-10-21T09:35:36.310Z,23.80
2023-10-21T09:38:19.561Z,23.70
2023-10-21T09:40:47.335Z,35.40
2023-10-21T09:43:15.130Z,33.80
2023-10-21T09:45:47.210Z,30.10
2023-10-21T09:48:15.087Z,23.50
2023-10-21T09:50:51.025Z,28.10
2023-10-21T09:53:21.383Z,30.70
2023-10-21T09:55:50.264Z,17.50
2023-10-21T09:58:21.147Z,22.70
2023-10-21T10:00:49.352Z,25.80
2023-10-21T10:03:19.457Z,16.50
2023-10-21T10:05:47.755Z,20.70
2023-10-21T10:08:15.913Z,19.70
2023-10-21T10:10:43.853Z,16.80
2023-10-21T10:13:14.675Z,17.70
2023-10-21T10:15:43.973Z,21.70
2023-10-21T10:18:20.349Z,23.60
2023-10-21T10:20:52.456Z,22.20
2023-10-21T10:23:21.493Z,17.90
2023-10-21T10:25:53.882Z,15.70
2023-10-21T10:28:23.365Z,16.50
2023-10-21T10:30:51.828Z,17.80
2023-10-21T10:33:23.744Z,20.50
2023-10-21T10:35:52.030Z,16.80
2023-10-21T10:38:33.023Z,21.90
2023-10-21T10:41:08.176Z,15.80
2023-10-21T10:43:37.241Z,9.50
2023-10-21T10:46:04.614Z,11.90
2023-10-21T10:48:31.929Z,15.30
2023-10-21T10:51:02.531Z,16.50
2023-10-21T10:53:30.025Z,10.70
2023-10-21T10:55:57.615Z,18.20
2023-10-21T10:58:28.342Z,14.50
2023-10-21T11:00:56.292Z,14.90
2023-10-21T11:03:31.491Z,13.80
2023-10-21T11:05:59.785Z,16.40
2023-10-21T11:08:29.965Z,11.50
2023-10-21T11:11:07.771Z,9.00
2023-10-21T11:13:35.154Z,23.70
2023-10-21T11:16:07.113Z,20.60
2023-10-21T11:18:35.938Z,16.00
2023-10-21T11:21:03.232Z,11.00
2023-10-21T11:23:30.615Z,10.80
2023-10-21T11:26:00.516Z,6.70
2023-10-21T11:28:29.296Z,9.10
2023-10-21T11:31:00.275Z,10.90
2023-10-21T11:33:28.653Z,12.20
2023-10-21T11:35:57.877Z,16.00
2023-10-21T11:38:25.305Z,15.30
2023-10-21T11:40:52.636Z,18.60
2023-10-21T11:43:20.640Z,10.70
2023-10-21T11:45:51.142Z,8.50
2023-10-21T11:48:19.082Z,6.10
2023-10-21T11:50:47.187Z,6.70
2023-10-21T11:53:15.153Z,8.10
2023-10-21T11:55:46.106Z,5.80
2023-10-21T11:58:32.047Z,11.90
2023-10-21T12:01:28.769Z,6.90
2023-10-21T12:07:07.432Z,14.70
2023-10-21T12:09:53.075Z,11.00
2023-10-21T12:12:38.449Z,8.20
2023-10-21T12:15:11.847Z,9.60
2023-10-21T12:17:41.767Z,10.70
2023-10-21T12:20:36.098Z,8.40
2023-10-21T12:23:32.317Z,10.40
2023-10-21T12:25:59.983Z,6.60
2023-10-21T12:28:35.983Z,8.50
2023-10-21T12:31:21.984Z,11.00
2023-10-21T12:34:07.848Z,9.50
2023-10-21T12:36:36.679Z,9.40
2023-10-21T12:39:19.275Z,8.20
2023-10-21T12:41:53.453Z,10.30
2023-10-21T12:44:29.013Z,12.80
2023-10-21T12:47:02.499Z,9.40
2023-10-21T12:49:32.428Z,15.10
2023-10-21T12:52:00.522Z,9.50
2023-10-21T12:54:32.906Z,14.30
2023-10-21T12:57:00.284Z,10.90
2023-10-21T12:59:27.772Z,6.40
2023-10-21T13:02:19.943Z,11.10
2023-10-21T13:04:47.528Z,9.10
2023-10-21T13:07:14.939Z,12.50
2023-10-21T13:09:44.419Z,11.10
2023-10-21T13:12:16.159Z,10.70
2023-10-21T13:14:43.924Z,9.60
2023-10-21T13:17:11.245Z,10.80
2023-10-21T13:19:39.083Z,16.00
2023-10-21T13:22:07.634Z,35.80
2023-10-21T13:24:36.803Z,20.60
2023-10-21T13:27:07.568Z,14.10
2023-10-21T13:29:34.993Z,14.10
2023-10-21T13:32:02.818Z,10.60
2023-10-21T13:34:31.389Z,6.50
2023-10-21T13:36:58.859Z,11.10
2023-10-21T13:39:29.789Z,14.00
2023-10-21T13:41:57.741Z,8.80
2023-10-21T13:44:25.015Z,13.30
2023-10-21T13:46:52.376Z,11.80
2023-10-21T13:49:19.937Z,15.80
2023-10-21T13:51:48.753Z,6.70
2023-10-21T13:54:16.466Z,9.50
2023-10-21T13:56:44.076Z,17.10
2023-10-21T13:59:15.024Z,10.70
2023-10-21T14:01:44.086Z,9.10
2023-10-21T14:04:14.276Z,9.20
2023-10-21T14:06:42.497Z,8.00
2023-10-21T14:09:17.655Z,11.90
2023-10-21T14:11:45.081Z,12.40
2023-10-21T14:14:12.385Z,10.40
2023-10-21T14:16:39.540Z,14.50
2023-10-21T14:19:10.002Z,9.20
2023-10-21T14:21:37.755Z,10.00
2023-10-21T14:24:08.115Z,7.90
2023-10-21T14:26:37.083Z,8.10
2023-10-21T14:29:04.492Z,7.50
2023-10-21T14:31:31.971Z,9.50
2023-10-21T14:33:59.639Z,10.00
2023-10-21T14:36:26.995Z,8.90
2023-10-21T14:38:54.129Z,8.90
2023-10-21T14:41:21.477Z,11.60
2023-10-21T14:43:49.310Z,8.80
2023-10-21T14:46:16.846Z,10.30
2023-10-21T14:48:44.202Z,6.30
2023-10-21T14:51:11.459Z,7.00
2023-10-21T14:53:38.771Z,7.30
2023-10-21T14:56:06.539Z,6.60
2023-10-21T14:58:33.830Z,8.80
2023-10-21T15:01:03.865Z,7.20
2023-10-21T15:03:31.310Z,11.30
2023-10-21T15:06:01.491Z,9.20
2023-10-21T15:08:28.753Z,17.10
2023-10-21T15:10:55.952Z,16.70
2023-10-21T15:13:29.770Z,8.00
2023-10-21T15:16:03.517Z,6.90
2023-10-21T15:18:32.254Z,13.00
2023-10-21T15:21:07.545Z,7.30
2023-10-21T15:23:36.647Z,10.40
2023-10-21T15:26:24.342Z,9.00
2023-10-21T15:28:51.631Z,11.20
2023-10-21T15:31:19.208Z,7.90
2023-10-21T15:33:46.864Z,7.00
2023-10-21T15:36:14.465Z,9.70
2023-10-21T15:38:41.801Z,10.00
2023-10-21T15:41:19.651Z,9.40
2023-10-21T15:43:47.125Z,11.10
2023-10-21T15:46:14.572Z,11.00
2023-10-21T15:48:42.279Z,9.20
2023-10-21T15:51:12.272Z,12.90
2023-10-21T15:53:40.120Z,12.20
2023-10-21T15:56:08.131Z,15.30
2023-10-21T15:58:35.695Z,30.50
2023-10-21T16:01:03.268Z,49.60
2023-10-21T16:03:30.788Z,19.60
2023-10-21T16:05:58.534Z,15.20
2023-10-21T16:08:26.166Z,18.90
2023-10-21T16:11:04.808Z,11.60
2023-10-21T16:13:35.005Z,16.00
2023-10-21T16:16:04.209Z,18.40
2023-10-21T16:18:34.050Z,12.70
2023-10-21T16:21:01.692Z,12.40
2023-10-21T16:23:29.401Z,9.80
2023-10-21T16:26:01.804Z,12.70
2023-10-21T16:28:29.953Z,8.10
2023-10-21T16:30:57.875Z,9.70
2023-10-21T16:33:25.790Z,10.70
2023-10-21T16:35:56.195Z,19.10
2023-10-21T16:38:26.423Z,12.20
2023-10-21T16:40:54.857Z,17.00
2023-10-21T16:43:22.650Z,19.00
2023-10-21T16:45:50.710Z,22.20
2023-10-21T16:48:19.754Z,23.90
2023-10-21T16:50:47.597Z,32.20
2023-10-21T16:53:15.568Z,33.30
2023-10-21T16:55:43.320Z,41.10
2023-10-21T16:58:11.534Z,34.40
2023-10-21T17:00:39.412Z,28.10
2023-10-21T17:03:07.621Z,23.60
2023-10-21T17:05:39.179Z,19.10
2023-10-21T17:08:07.337Z,24.30
2023-10-21T17:10:35.719Z,18.50
2023-10-21T17:13:03.302Z,15.50
2023-10-21T17:15:31.214Z,16.40
2023-10-21T17:17:59.726Z,21.90
2023-10-21T17:20:28.744Z,46.00
2023-10-21T17:22:56.629Z,21.00
2023-10-21T17:25:25.693Z,16.90
2023-10-21T17:27:53.692Z,31.10
2023-10-21T17:30:22.180Z,31.00
2023-10-21T17:32:51.075Z,25.50
2023-10-21T17:35:19.214Z,34.70
2023-10-21T17:37:47.439Z,131.10
2023-10-21T17:40:15.632Z,96.30
2023-10-21T17:42:43.732Z,46.70
2023-10-21T17:45:11.534Z,40.70
2023-10-21T17:47:39.999Z,34.70
2023-10-21T17:50:13.370Z,39.00
2023-10-21T17:52:42.118Z,46.60
2023-10-21T17:55:10.691Z,29.90
2023-10-21T17:57:40.246Z,25.80
2023-10-21T18:00:09.063Z,28.10
2023-10-21T18:02:40.468Z,24.00
2023-10-21T18:05:09.919Z,23.70
2023-10-21T18:07:38.322Z,17.90
2023-10-21T18:10:06.470Z,15.20
2023-10-21T18:12:36.520Z,17.70
2023-10-21T18:15:06.664Z,15.40
2023-10-21T18:17:36.503Z,14.90
2023-10-21T18:20:08.281Z,21.30
2023-10-21T18:22:36.449Z,14.70
2023-10-21T18:25:05.377Z,15.20
2023-10-21T18:27:33.868Z,15.40
2023-10-21T18:30:02.326Z,15.30
2023-10-21T18:32:29.768Z,14.80
2023-10-21T18:34:58.510Z,18.20
2023-10-21T18:37:26.268Z,14.10
2023-10-21T18:39:54.176Z,11.40
2023-10-21T18:42:22.195Z,16.00
2023-10-21T18:44:50.466Z,23.70
2023-10-21T18:47:17.920Z,23.20
2023-10-21T18:49:45.672Z,20.80
2023-10-21T18:52:17.840Z,36.20
2023-10-21T18:54:45.854Z,39.30
2023-10-21T18:57:14.850Z,34.80
2023-10-21T18:59:42.438Z,17.90
2023-10-21T19:02:12.966Z,18.00
2023-10-21T19:04:41.451Z,17.70
2023-10-21T19:07:10.358Z,20.30
2023-10-21T19:09:38.753Z,19.50
2023-10-21T19:12:07.204Z,22.20
2023-10-21T19:14:35.225Z,21.40
2023-10-21T19:17:05.208Z,33.00
2023-10-21T19:19:35.503Z,33.40
2023-10-21T19:22:04.213Z,38.60
2023-10-21T19:24:32.579Z,38.70
2023-10-21T19:27:00.974Z,34.60
2023-10-21T19:29:30.947Z,22.20
2023-10-21T19:32:00.457Z,24.60
2023-10-21T19:34:29.276Z,44.40
2023-10-21T19:36:57.069Z,40.10
2023-10-21T19:39:31.302Z,28.80
2023-10-21T19:41:59.655Z,24.50
2023-10-21T19:44:28.199Z,21.30
2023-10-21T19:46:56.674Z,20.10
2023-10-21T19:49:24.989Z,26.30
2023-10-21T19:51:53.244Z,30.90
2023-10-21T19:54:21.161Z,39.30
2023-10-21T19:56:48.740Z,26.10
2023-10-21T19:59:16.691Z,28.30
2023-10-21T20:01:45.167Z,36.10
2023-10-21T20:04:14.124Z,39.50
2023-10-21T20:06:42.547Z,44.30
2023-10-21T20:09:15.634Z,50.70
2023-10-21T20:11:44.332Z,59.60
2023-10-21T20:14:12.142Z,56.40
2023-10-21T20:16:39.969Z,51.70
2023-10-21T20:19:07.594Z,60.00
2023-10-21T20:21:37.441Z,61.50
2023-10-21T20:24:05.327Z,56.80
2023-10-21T20:26:33.321Z,58.60
2023-10-21T20:29:00.782Z,53.20
2023-10-21T20:31:28.705Z,68.20
2023-10-21T20:33:56.152Z,59.90
2023-10-21T20:36:24.677Z,55.60
2023-10-21T20:39:01.951Z,57.90
2023-10-21T20:41:29.319Z,66.40
2023-10-21T20:43:57.065Z,75.10
2023-10-21T20:46:25.599Z,95.10
2023-10-21T20:48:53.316Z,69.30
2023-10-21T20:51:20.761Z,62.70
2023-10-21T20:53:48.322Z,70.30
2023-10-21T20:56:26.387Z,70.00
2023-10-21T20:58:55.344Z,36.80
2023-10-21T21:01:30.961Z,33.00
2023-10-21T21:04:05.395Z,23.30
2023-10-21T21:06:32.953Z,25.60
2023-10-21T21:09:00.242Z,24.80
2023-10-21T21:11:27.586Z,20.20
2023-10-21T21:13:54.830Z,15.50
2023-10-21T21:16:22.050Z,23.80
2023-10-21T21:18:49.467Z,20.70
2023-10-21T21:21:16.698Z,19.60
2023-10-21T21:23:44.041Z,15.30
2023-10-21T21:26:11.357Z,20.20
2023-10-21T21:28:38.562Z,17.70
2023-10-21T21:31:05.729Z,12.00
2023-10-21T21:33:32.961Z,12.80
2023-10-21T21:36:01.768Z,15.00
2023-10-21T21:38:29.161Z,12.50
2023-10-21T21:40:56.951Z,17.40
2023-10-21T21:43:24.310Z,19.10
2023-10-21T21:45:51.679Z,13.20
2023-10-21T21:48:19.263Z,16.80
2023-10-21T21:50:46.496Z,15.70
2023-10-21T21:53:13.656Z,14.20
2023-10-21T21:55:44.856Z,12.70
2023-10-21T21:58:12.122Z,13.20
2023-10-21T22:00:43.851Z,14.20
2023-10-21T22:03:11.174Z,23.70
2023-10-21T22:05:39.627Z,11.70
2023-10-21T22:08:07.297Z,17.70
2023-10-21T22:10:34.926Z,14.70
2023-10-21T22:13:02.548Z,14.70
2023-10-21T22:15:29.848Z,17.00
2023-10-21T22:17:57.312Z,13.60
2023-10-21T22:20:25.620Z,15.10
2023-10-21T22:22:55.459Z,13.10
2023-10-21T22:25:29.832Z,16.80
2023-10-21T22:27:57.568Z,10.70
2023-10-21T22:30:24.733Z,21.90
2023-10-21T22:32:52.091Z,13.20
2023-10-21T22:35:19.565Z,14.50
2023-10-21T22:37:46.762Z,14.90
2023-10-21T22:40:18.712Z,12.00
2023-10-21T22:42:46.261Z,12.30
2023-10-21T22:45:18.852Z,12.90
2023-10-21T22:47:47.599Z,12.00
2023-10-21T22:50:15.021Z,15.70
2023-10-21T22:52:42.373Z,10.50
2023-10-21T22:55:09.775Z,13.00
2023-10-21T22:57:36.923Z,10.30
2023-10-21T23:00:06.100Z,14.50
2023-10-21T23:02:33.637Z,12.40
2023-10-21T23:05:00.937Z,13.40
2023-10-21T23:07:28.197Z,9.50
2023-10-21T23:09:55.517Z,11.50
2023-10-21T23:12:22.727Z,10.50
2023-10-21T23:14:50.502Z,10.90
2023-10-21T23:17:17.718Z,13.50
2023-10-21T23:19:45.052Z,10.20
2023-10-21T23:22:12.358Z,10.40
2023-10-21T23:24:41.111Z,13.60
2023-10-21T23:27:08.550Z,12.00
2023-10-21T23:29:35.959Z,14.50
2023-10-21T23:32:03.173Z,11.70
2023-10-21T23:34:30.435Z,15.30
2023-10-21T23:36:58.078Z,12.30
2023-10-21T23:39:25.379Z,11.50
2023-10-21T23:41:54.199Z,10.60
2023-10-21T23:44:21.428Z,17.00
2023-10-21T23:46:48.647Z,14.70
2023-10-21T23:49:15.886Z,11.60
2023-10-21T23:51:43.113Z,12.40
2023-10-21T23:54:10.406Z,9.90
2023-10-21T23:56:37.796Z,13.10
2023-10-21T23:59:05.018Z,9.70
